createdAt,value
2023-04-24T00:05:13.138Z,12.59
2023-04-24T00:10:45.069Z,12.6
2023-04-24T00:16:16.709Z,12.73
2023-04-24T00:21:48.478Z,12.78
2023-04-24T00:27:20.037Z,12.78
2023-04-24T00:32:51.919Z,12.7
2023-04-24T00:38:23.483Z,12.65
2023-04-24T00:43:55.405Z,12.64
2023-04-24T00:49:26.923Z,12.72
2023-04-24T00:54:58.769Z,12.8
2023-04-24T01:00:34.757Z,12.79
2023-04-24T01:06:06.473Z,12.79
2023-04-24T01:11:38.402Z,13.1
2023-04-24T01:17:10.094Z,13.04
2023-04-24T01:22:41.800Z,13.15
2023-04-24T01:28:13.514Z,12.98
2023-04-24T01:33:45.071Z,12.93
2023-04-24T01:39:16.800Z,13.02
2023-04-24T01:44:48.699Z,13.05
2023-04-24T01:50:20.244Z,12.9
2023-04-24T01:55:52.096Z,12.84
2023-04-24T02:01:30.351Z,12.73
2023-04-24T02:07:01.855Z,12.62
2023-04-24T02:12:33.936Z,12.67
2023-04-24T02:18:05.543Z,12.64
2023-04-24T02:23:37.185Z,12.66
2023-04-24T02:29:08.718Z,12.61
2023-04-24T02:34:40.626Z,12.66
2023-04-24T02:40:12.714Z,12.62
2023-04-24T02:45:43.974Z,12.68
2023-04-24T02:51:15.751Z,12.64
2023-04-24T02:56:47.513Z,12.59
2023-04-24T03:02:23.563Z,12.3
2023-04-24T03:07:55.192Z,12.35
2023-04-24T03:13:26.935Z,12.52
2023-04-24T03:18:58.855Z,12.32
2023-04-24T03:24:30.335Z,12.18
2023-04-24T03:30:02.072Z,12.19
2023-04-24T03:35:33.930Z,12.15
2023-04-24T03:41:05.693Z,12.18
2023-04-24T03:46:37.349Z,12.03
2023-04-24T03:52:09.113Z,12.15
2023-04-24T03:57:40.860Z,12.01
2023-04-24T04:03:16.953Z,12.32
2023-04-24T04:08:48.546Z,12.12
2023-04-24T04:14:20.617Z,12.14
2023-04-24T04:19:52.089Z,11.87
2023-04-24T04:25:23.722Z,11.21
2023-04-24T04:30:55.447Z,11.29
2023-04-24T04:36:27.313Z,11.27
2023-04-24T04:41:58.869Z,11.12
2023-04-24T04:47:30.639Z,11.16
2023-04-24T04:53:02.341Z,10.95
2023-04-24T04:58:34.364Z,11.2
2023-04-24T05:04:10.326Z,11.22
2023-04-24T05:09:42.207Z,11.24
2023-04-24T05:15:13.808Z,11.05
2023-04-24T05:20:45.551Z,10.84
2023-04-24T05:26:17.167Z,10.98
2023-04-24T05:31:49.071Z,11.07
2023-04-24T05:37:20.567Z,11.25
2023-04-24T05:42:52.415Z,11.14
2023-04-24T05:48:24.236Z,11.36
2023-04-24T05:53:55.741Z,11.25
2023-04-24T05:59:27.490Z,11.42
2023-04-24T06:05:03.761Z,11.32
2023-04-24T06:10:35.491Z,11.33
2023-04-24T06:16:07.274Z,11.64
2023-04-24T06:21:38.877Z,11.64
2023-04-24T06:27:10.738Z,11.56
2023-04-24T06:32:42.641Z,11.59
2023-04-24T06:38:14.575Z,11.69
2023-04-24T06:43:45.856Z,11.64
2023-04-24T06:49:17.606Z,12.01
2023-04-24T06:54:49.444Z,12.37
2023-04-24T07:00:21.039Z,12.38
2023-04-24T07:05:57.182Z,13.09
2023-04-24T07:11:28.906Z,12.41
2023-04-24T07:17:00.796Z,12.21
2023-04-24T07:22:32.332Z,12.21
2023-04-24T07:28:04.328Z,12.18
2023-04-24T07:33:35.838Z,12.29
2023-04-24T07:39:07.526Z,12.18
2023-04-24T07:44:39.340Z,12.41
2023-04-24T07:50:10.945Z,12.19
2023-04-24T07:55:42.708Z,12.0
2023-04-24T08:01:14.410Z,12.29
2023-04-24T08:06:50.721Z,12.1
2023-04-24T08:12:22.275Z,12.49
2023-04-24T08:17:54.059Z,12.16
2023-04-24T08:23:25.890Z,11.97
2023-04-24T08:28:57.973Z,11.9
2023-04-24T08:34:29.161Z,12.42
2023-04-24T08:40:01.574Z,12.5
2023-04-24T08:45:32.624Z,12.5
2023-04-24T08:51:04.355Z,12.27
2023-04-24T08:56:36.276Z,12.06
2023-04-24T09:02:07.979Z,12.01
2023-04-24T09:07:43.892Z,11.9
2023-04-24T09:13:15.621Z,11.85
2023-04-24T09:18:47.329Z,11.84
2023-04-24T09:24:19.224Z,11.75
2023-04-24T09:29:50.903Z,11.89
2023-04-24T09:35:22.620Z,11.96
2023-04-24T09:40:54.426Z,13.13
2023-04-24T09:46:26.462Z,13.26
2023-04-24T09:51:57.849Z,13.12
2023-04-24T09:57:29.617Z,13.27
2023-04-24T10:03:01.333Z,13.18
2023-04-24T10:08:37.300Z,13.32
2023-04-24T10:14:09.055Z,13.78
2023-04-24T10:19:40.782Z,13.22
2023-04-24T10:25:12.423Z,12.65
2023-04-24T10:30:44.449Z,12.66
2023-04-24T10:36:16.103Z,12.26
2023-04-24T10:41:47.657Z,11.96
2023-04-24T10:47:19.488Z,11.96
2023-04-24T10:52:51.121Z,12.11
2023-04-24T10:58:22.797Z,12.25
2023-04-24T11:03:54.555Z,12.36
2023-04-24T11:09:30.626Z,12.47
2023-04-24T11:15:02.860Z,12.69
2023-04-24T11:20:34.206Z,13.49
2023-04-24T11:26:05.972Z,13.42
2023-04-24T11:31:37.673Z,13.48
2023-04-24T11:37:09.216Z,13.16
2023-04-24T11:42:40.974Z,12.64
2023-04-24T11:48:12.677Z,12.56
2023-04-24T11:53:44.694Z,12.69
2023-04-24T11:59:16.284Z,12.85
2023-04-24T12:04:48.856Z,13.41
2023-04-24T12:10:24.160Z,13.04
2023-04-24T12:15:55.957Z,12.68
2023-04-24T12:21:27.467Z,12.49
2023-04-24T12:26:59.602Z,12.73
2023-04-24T12:32:30.995Z,12.5
2023-04-24T12:38:02.666Z,12.63
2023-04-24T12:43:34.371Z,12.91
2023-04-24T12:49:06.319Z,12.93
2023-04-24T12:54:37.964Z,12.63
2023-04-24T13:00:09.616Z,11.86
2023-04-24T13:05:41.502Z,12.56
2023-04-24T13:11:19.559Z,13.1
2023-04-24T13:16:51.193Z,12.56
2023-04-24T13:22:22.900Z,12.64
2023-04-24T13:27:54.693Z,12.78
2023-04-24T13:33:26.431Z,12.54
2023-04-24T13:38:58.015Z,12.21
2023-04-24T13:44:29.861Z,12.42
2023-04-24T13:50:01.683Z,13.13
2023-04-24T13:55:33.250Z,13.29
2023-04-24T14:01:04.906Z,12.99
2023-04-24T14:06:36.756Z,13.12
2023-04-24T14:12:14.749Z,12.95
2023-04-24T14:17:46.628Z,12.75
2023-04-24T14:23:18.664Z,13.12
2023-04-24T14:28:51.081Z,13.38
2023-04-24T14:34:21.626Z,13.0
2023-04-24T14:40:06.603Z,13.05
2023-04-24T14:45:25.088Z,13.14
2023-04-24T14:50:56.816Z,13.02
2023-04-24T14:56:28.662Z,13.19
2023-04-24T15:02:14.793Z,13.84
2023-04-24T15:07:32.038Z,13.2
2023-04-24T15:13:08.390Z,12.82
2023-04-24T15:18:40.016Z,12.68
2023-04-24T15:24:11.723Z,12.4
2023-04-24T15:29:43.321Z,12.2
2023-04-24T15:35:15.041Z,12.57
2023-04-24T15:40:46.740Z,12.88
2023-04-24T15:46:18.625Z,12.96
2023-04-24T15:51:50.350Z,13.06
2023-04-24T15:57:21.936Z,13.17
2023-04-24T16:02:53.717Z,13.11
2023-04-24T16:08:25.513Z,13.39
2023-04-24T16:14:01.463Z,13.34
2023-04-24T16:19:33.338Z,13.43
2023-04-24T16:25:05.026Z,13.35
2023-04-24T16:30:36.801Z,13.56
2023-04-24T16:36:08.354Z,13.53
2023-04-24T16:41:40.411Z,13.33
2023-04-24T16:47:11.988Z,13.29
2023-04-24T16:52:43.722Z,13.1
2023-04-24T16:58:15.328Z,13.2
2023-04-24T17:03:47.229Z,13.22
2023-04-24T17:09:18.709Z,13.05
2023-04-24T17:14:54.970Z,13.09
2023-04-24T17:20:28.294Z,13.08
2023-04-24T17:25:58.247Z,13.23
2023-04-24T17:31:30.030Z,12.98
2023-04-24T17:37:01.757Z,13.0
2023-04-24T17:42:33.611Z,13.16
2023-04-24T17:48:05.473Z,13.06
2023-04-24T17:53:36.885Z,12.96
2023-04-24T17:59:08.645Z,12.83
2023-04-24T18:04:40.406Z,12.67
2023-04-24T18:10:12.074Z,12.7
2023-04-24T18:15:48.422Z,12.53
2023-04-24T18:21:19.948Z,12.44
2023-04-24T18:26:51.640Z,12.44
2023-04-24T18:32:23.519Z,12.19
2023-04-24T18:37:55.403Z,12.29
2023-04-24T18:43:26.803Z,12.55
2023-04-24T18:48:58.573Z,12.31
2023-04-24T18:54:30.446Z,12.53
2023-04-24T19:00:02.405Z,12.33
2023-04-24T19:05:33.823Z,12.36
2023-04-24T19:11:05.532Z,12.31
2023-04-24T19:16:41.633Z,12.42
2023-04-24T19:22:13.508Z,12.09
2023-04-24T19:27:45.076Z,11.93
2023-04-24T19:33:17.035Z,12.13
2023-04-24T19:38:48.799Z,12.19
2023-04-24T19:44:20.388Z,12.1
2023-04-24T19:49:52.355Z,11.91
2023-04-24T19:55:23.730Z,11.98
2023-04-24T20:00:55.425Z,11.9
2023-04-24T20:06:27.339Z,11.92
2023-04-24T20:11:58.859Z,11.78
2023-04-24T20:17:37.004Z,11.64
2023-04-24T20:23:08.793Z,11.77
2023-04-24T20:28:40.473Z,11.53
2023-04-24T20:34:12.321Z,11.42
2023-04-24T20:39:44.051Z,11.46
2023-04-24T20:45:15.777Z,11.45
2023-04-24T20:50:47.310Z,11.54
2023-04-24T20:56:19.229Z,11.48
2023-04-24T21:01:51.042Z,11.4
2023-04-24T21:07:22.461Z,11.33
2023-04-24T21:12:54.390Z,11.33
2023-04-24T21:18:32.451Z,11.25
2023-04-24T21:24:04.229Z,11.0
2023-04-24T21:29:35.934Z,10.96
2023-04-24T21:35:07.665Z,10.94
2023-04-24T21:40:39.224Z,10.89
2023-04-24T21:46:11.137Z,10.81
2023-04-24T21:51:42.656Z,10.77
2023-04-24T21:57:14.583Z,10.69
2023-04-24T22:02:46.455Z,10.6
2023-04-24T22:08:17.952Z,10.65
2023-04-24T22:13:49.742Z,10.71
2023-04-24T22:19:25.688Z,10.79
2023-04-24T22:24:57.445Z,10.85
2023-04-24T22:30:29.366Z,10.89
2023-04-24T22:36:00.852Z,10.86
2023-04-24T22:41:32.655Z,10.91
2023-04-24T22:47:04.443Z,10.87
2023-04-24T22:52:36.513Z,10.87
2023-04-24T22:58:07.898Z,10.81
2023-04-24T23:03:39.914Z,10.71
2023-04-24T23:09:11.184Z,10.72
2023-04-24T23:14:42.905Z,10.38
2023-04-24T23:20:21.031Z,10.18
2023-04-24T23:25:52.943Z,9.65
2023-04-24T23:31:24.485Z,9.61
2023-04-24T23:36:56.707Z,9.4
2023-04-24T23:42:27.930Z,9.54
2023-04-24T23:47:59.930Z,9.59
2023-04-24T23:53:31.358Z,9.88
2023-04-24T23:59:02.998Z,10.04
